You are here

Stations

Station Name Date Time Temperature Relative Humidity Precipitation Wind Speed Wind Direction Create Custom Report Daily Report Hourly Report
Aberdeen VTcr 2018-19-09 3:30 70.2 95.60 0.00
Bee Lake 2018-19-09 3:30 72.5 96.60 0.00 5.43 SSE
Brooksville 2018-19-09 3:30 70.3 100.00 0.00 0.00 NNE
Brooksville2 VTso 2018-19-09 3:30 71.1 97.70 0.00
Brown Loam Exp Stn VT 2018-19-09 3:30 70.5 100.00 0.00
Catladge Farm 2018-19-09 3:30 72.7 97.70 0.00 1.21 NE
Clarksdale VTso 2018-19-09 3:30 71.0 94.30 0.00
Cleveland 2018-19-09 3:30 73.4 95.90 0.00 0.00 WSW
COOP Stoneville 2018-18-09 8:00 80.0 87 0.00
Home Cypress Farm 2018-19-09 3:30 70.9 97.50 0.00 0.36 ESE
Jackson Co 2018-19-09 3:30
Longwood VTso 2018-19-09 3:30 71.1 95.20 0.00
Lyon 2018-19-09 3:30 70.3 97.50 0.00 0.07 NE
Macon VTcr 2018-19-09 3:30 72.6 96.10 0.00
Mound Bayou 2018-19-09 3:30 72.6 93.80 0.00 0.17 SE
Olive Branch VTcr 2018-19-09 3:30 68.5 100.00 0.00
Olive Branch2 VTso 2018-19-09 3:30 69.3 100.00 0.00
Onward VT 2018-19-09 3:30 71.8 94.60 0.00
Pontotoc AWS COOP 2018-19-09 3:30 69.0 97.17 0.00
Prairie 2018-19-09 3:30 70.8 100.00 0.00 0.45 WNW
Sidon 2018-19-09 3:30 72.3 98.40 0.00 0.00 S
Stockett Farm 2018-19-09 3:15 73.8 98.60 0.00 0.00 SE
Stoneville AWS 2018-19-09 3:30 72.7 96.50 0.00 0.00 NE
Stoneville F10 2018-19-09 3:30 72.8 96.10 0.00 0.47 N
Stoneville SW 2018-19-09 3:30 73.7 96.10 0.00 0.00 W
Stoneville W 2018-19-09 3:30 73.2 97.80 0.00 0.00 SE
Thighman 2018-19-09 3:30 72.6 94.70 0.00 0.00 SE
Tippo VT 2018-19-09 3:30 71.2 96.90 0.00
Tribbett 2018-19-09 3:30 73.8 92.20 0.00 0.44 N
Verona 2018-19-09 3:30 70.7 96.30 0.00 1.13 SSW
Verona VTso 2018-19-09 3:30 68.4 95.80 0.00